< < Back
Terminal Aerodrome Forecast


Current Version              Previous Versions:   1  2  3  4  5  6  7  8  9  

Terminal Aerodrome Forecast

051
FTUS42 KFFC 051345 AAB
TAFATL
TAF AMD
KATL 051345Z 0514/0618 32010KT 5SM -RA OVC003
     FM051600 32010G20KT 6SM -RA OVC008
     FM052200 33010G20KT P6SM VCSH OVC012
     FM060100 34008G15KT P6SM OVC025
     FM060600 34008KT P6SM BKN025
     FM061500 02006KT P6SM SCT025=

Latest METAR

283
SAUS70 KWBC 051400 RRA
MTRATL
METAR KATL 051352Z 33010KT 1/2SM RA BR OVC003 10/09 A2994 RMK AO2 SFC
VIS 1 3/4 SLP135 P0001 T01000094


USA.gov is the U.S. government's official web portal to all federal, state and local government web resources and services.